createdAt,value
2022-09-21T00:00:26.635Z,1.30
2022-09-21T00:03:35.312Z,1.50
2022-09-21T00:06:43.467Z,1.40
2022-09-21T00:09:53.019Z,1.70
2022-09-21T00:13:02.989Z,1.27
2022-09-21T00:16:11.471Z,2.00
2022-09-21T00:19:19.983Z,2.20
2022-09-21T00:55:38.753Z,1.77
2022-09-21T00:58:54.865Z,1.50
2022-09-21T01:02:05.262Z,1.50
2022-09-21T01:05:15.966Z,1.30
2022-09-21T01:08:27.717Z,1.00
2022-09-21T01:11:49.382Z,1.00
2022-09-21T01:15:19.728Z,0.93
2022-09-21T01:18:37.682Z,0.93
2022-09-21T01:22:00.688Z,1.00
2022-09-21T01:25:26.855Z,1.10
2022-09-21T01:29:16.892Z,1.03
2022-09-21T01:32:33.525Z,1.13
2022-09-21T01:35:48.873Z,0.93
2022-09-21T01:39:14.987Z,1.07
2022-09-21T01:42:27.543Z,0.97
2022-09-21T01:45:44.590Z,1.00
2022-09-21T01:49:03.602Z,1.10
2022-09-21T01:52:22.074Z,0.83
2022-09-21T01:55:40.207Z,1.27
2022-09-21T01:59:02.397Z,1.27
2022-09-21T02:02:20.257Z,1.10
2022-09-21T02:05:31.212Z,1.33
2022-09-21T02:08:40.791Z,1.10
2022-09-21T02:11:49.012Z,0.80
2022-09-21T02:14:57.709Z,1.07
2022-09-21T02:18:18.643Z,1.00
2022-09-21T02:21:34.189Z,1.20
2022-09-21T02:24:47.723Z,1.23
2022-09-21T02:28:03.293Z,1.27
2022-09-21T02:31:20.090Z,1.27
2022-09-21T02:34:37.181Z,1.27
2022-09-21T02:37:56.050Z,2.10
2022-09-21T02:41:13.868Z,1.60
2022-09-21T02:44:33.145Z,1.37
2022-09-21T02:47:49.537Z,1.40
2022-09-21T02:56:08.400Z,1.10
2022-09-21T02:59:17.807Z,1.10
2022-09-21T03:02:36.297Z,1.53
2022-09-21T03:05:46.502Z,1.53
2022-09-21T03:08:54.671Z,1.33
2022-09-21T03:12:05.001Z,1.20
2022-09-21T03:15:13.104Z,1.30
2022-09-21T03:18:21.241Z,1.30
2022-09-21T03:21:29.719Z,1.30
2022-09-21T03:24:46.969Z,1.13
2022-09-21T03:27:57.080Z,1.20
2022-09-21T03:31:06.681Z,1.20
2022-09-21T03:34:14.916Z,1.50
2022-09-21T03:37:23.052Z,1.63
2022-09-21T03:40:31.222Z,1.30
2022-09-21T03:43:40.784Z,1.07
2022-09-21T03:46:51.170Z,1.23
2022-09-21T03:49:59.585Z,1.60
2022-09-21T03:53:09.476Z,1.37
2022-09-21T03:56:17.611Z,1.17
2022-09-21T03:59:27.090Z,1.40
2022-09-21T04:02:35.704Z,1.20
2022-09-21T04:05:43.792Z,1.17
2022-09-21T04:08:53.396Z,12.50
2022-09-21T04:12:01.739Z,3.47
2022-09-21T04:15:13.072Z,1.93
2022-09-21T04:18:21.150Z,1.50
2022-09-21T04:21:29.957Z,1.17
2022-09-21T04:24:39.515Z,1.33
2022-09-21T04:27:48.023Z,1.20
2022-09-21T04:30:57.481Z,1.20
2022-09-21T04:34:05.879Z,1.87
2022-09-21T04:37:13.999Z,2.93
2022-09-21T04:40:23.300Z,1.43
2022-09-21T04:43:31.479Z,1.10
2022-09-21T04:46:42.315Z,5.27
2022-09-21T04:49:51.655Z,1.20
2022-09-21T04:53:00.231Z,1.13
2022-09-21T04:56:10.985Z,1.17
2022-09-21T04:59:19.167Z,1.40
2022-09-21T05:02:29.221Z,1.00
2022-09-21T05:05:37.327Z,1.23
2022-09-21T05:09:02.949Z,1.53
2022-09-21T05:12:11.379Z,1.30
2022-09-21T05:15:20.414Z,1.50
2022-09-21T05:18:32.041Z,1.00
2022-09-21T05:21:40.122Z,1.20
2022-09-21T05:24:48.752Z,1.60
2022-09-21T05:27:57.099Z,1.60
2022-09-21T05:31:28.402Z,1.33
2022-09-21T05:34:53.553Z,1.50
2022-09-21T05:38:11.323Z,1.67
2022-09-21T05:41:21.265Z,1.70
2022-09-21T05:44:30.525Z,3.43
2022-09-21T05:47:42.542Z,2.20
2022-09-21T05:51:03.092Z,1.80
2022-09-21T05:54:22.802Z,1.70
2022-09-21T05:57:48.081Z,1.60
2022-09-21T06:01:17.973Z,2.10
2022-09-21T06:04:26.932Z,2.20
2022-09-21T06:07:36.408Z,1.80
2022-09-21T06:10:45.284Z,3.90
2022-09-21T06:13:53.999Z,3.20
2022-09-21T06:17:04.022Z,3.13
2022-09-21T06:20:12.145Z,1.60
2022-09-21T06:23:21.792Z,2.30
2022-09-21T06:26:30.270Z,1.70
2022-09-21T06:29:38.924Z,1.30
2022-09-21T06:32:46.977Z,1.60
2022-09-21T06:35:57.170Z,1.30
2022-09-21T06:39:06.905Z,1.40
2022-09-21T06:42:15.280Z,1.90
2022-09-21T06:45:23.501Z,1.90
2022-09-21T06:48:35.336Z,2.27
2022-09-21T06:51:44.361Z,4.07
2022-09-21T06:54:54.034Z,3.40
2022-09-21T06:59:19.264Z,1.33
2022-09-21T07:02:28.768Z,1.00
2022-09-21T07:05:38.288Z,0.80
2022-09-21T07:12:21.279Z,1.00
2022-09-21T07:15:31.469Z,1.20
2022-09-21T07:18:44.144Z,0.80
2022-09-21T07:21:55.193Z,1.13
2022-09-21T07:25:06.935Z,0.90
2022-09-21T07:28:16.638Z,1.30
2022-09-21T07:31:24.816Z,1.20
2022-09-21T07:34:37.191Z,1.40
2022-09-21T07:37:45.378Z,1.23
2022-09-21T07:40:54.833Z,0.90
2022-09-21T07:44:07.407Z,0.83
2022-09-21T07:47:16.920Z,0.73
2022-09-21T07:50:25.246Z,0.60
2022-09-21T07:53:34.112Z,0.77
2022-09-21T07:57:03.666Z,0.60
2022-09-21T08:00:13.836Z,0.60
2022-09-21T08:03:22.044Z,0.57
2022-09-21T08:06:35.189Z,0.40
2022-09-21T08:09:43.451Z,0.60
2022-09-21T08:12:51.933Z,0.40
2022-09-21T08:16:03.735Z,0.50
2022-09-21T08:19:12.088Z,0.50
2022-09-21T08:22:20.875Z,0.43
2022-09-21T08:25:30.327Z,0.53
2022-09-21T08:28:38.775Z,0.70
2022-09-21T08:31:48.325Z,0.87
2022-09-21T08:34:56.615Z,0.60
2022-09-21T08:38:04.998Z,0.60
2022-09-21T08:41:19.973Z,0.60
2022-09-21T08:44:36.991Z,0.50
2022-09-21T08:47:52.219Z,0.40
2022-09-21T08:51:08.079Z,0.40
2022-09-21T08:54:26.369Z,0.40
2022-09-21T08:57:35.664Z,0.40
2022-09-21T09:00:44.589Z,0.33
2022-09-21T09:04:24.100Z,0.50
2022-09-21T09:07:59.530Z,0.40
2022-09-21T09:11:24.969Z,0.30
2022-09-21T09:15:07.331Z,0.20
2022-09-21T09:18:29.326Z,0.20
2022-09-21T09:21:42.788Z,0.30
2022-09-21T09:24:54.599Z,0.40
2022-09-21T09:28:28.846Z,0.30
2022-09-21T09:31:39.342Z,0.60
2022-09-21T09:34:58.490Z,0.30
2022-09-21T09:38:21.268Z,0.30
2022-09-21T09:41:56.090Z,0.47
2022-09-21T09:45:54.618Z,0.40
2022-09-21T09:49:21.373Z,0.40
2022-09-21T09:52:30.130Z,0.70
2022-09-21T09:55:43.733Z,0.70
2022-09-21T09:58:57.674Z,0.60
2022-09-21T10:02:19.778Z,0.67
2022-09-21T10:05:35.680Z,0.40
2022-09-21T10:08:47.270Z,0.40
2022-09-21T10:12:02.070Z,0.40
2022-09-21T10:15:13.344Z,0.40
2022-09-21T10:18:26.283Z,0.43
2022-09-21T10:21:38.506Z,0.60
2022-09-21T10:24:52.370Z,0.67
2022-09-21T10:28:03.691Z,0.70
2022-09-21T10:31:24.138Z,7.67
2022-09-21T10:34:35.132Z,1.93
2022-09-21T10:37:45.551Z,1.50
2022-09-21T10:40:54.928Z,4.30
2022-09-21T10:44:06.170Z,5.60
2022-09-21T10:47:26.663Z,0.30
2022-09-21T10:50:38.693Z,0.90
2022-09-21T10:53:53.795Z,0.57
2022-09-21T10:57:08.675Z,0.40
2022-09-21T11:00:39.334Z,0.30
2022-09-21T11:03:58.885Z,0.30
2022-09-21T11:07:20.324Z,0.40
2022-09-21T11:10:39.469Z,0.40
2022-09-21T11:14:01.054Z,0.30
2022-09-21T11:17:18.521Z,0.20
2022-09-21T11:20:37.887Z,0.40
2022-09-21T11:23:58.632Z,0.40
2022-09-21T11:27:16.742Z,0.40
2022-09-21T11:30:33.436Z,0.30
2022-09-21T11:34:05.479Z,0.40
2022-09-21T11:37:29.988Z,0.90
2022-09-21T11:41:15.000Z,0.40
2022-09-21T11:44:42.294Z,0.30
2022-09-21T11:48:12.274Z,0.30
2022-09-21T11:51:45.868Z,0.40
2022-09-21T11:55:24.200Z,0.23
2022-09-21T11:58:45.394Z,0.33
2022-09-21T12:02:23.670Z,0.30
2022-09-21T12:05:40.287Z,0.30
2022-09-21T12:09:28.462Z,0.30
2022-09-21T12:12:48.131Z,0.40
2022-09-21T12:16:08.663Z,0.20
2022-09-21T12:19:33.062Z,0.23
2022-09-21T12:22:46.555Z,0.40
2022-09-21T12:26:00.005Z,0.30
2022-09-21T12:29:20.029Z,0.33
2022-09-21T12:32:50.109Z,0.20
2022-09-21T12:36:08.649Z,0.30
2022-09-21T12:39:24.451Z,0.30
2022-09-21T12:42:42.921Z,0.20
2022-09-21T12:46:00.178Z,0.43
2022-09-21T12:49:19.269Z,0.33
2022-09-21T12:52:29.324Z,0.20
2022-09-21T12:55:50.019Z,0.20
2022-09-21T12:59:25.569Z,0.50
2022-09-21T13:02:41.856Z,0.20
2022-09-21T13:06:22.726Z,0.80
2022-09-21T13:09:33.422Z,0.50
2022-09-21T13:12:46.851Z,0.30
2022-09-21T13:15:59.197Z,0.20
2022-09-21T13:19:22.432Z,0.40
2022-09-21T13:22:35.388Z,0.40
2022-09-21T13:25:49.486Z,0.27
2022-09-21T13:29:32.936Z,0.30
2022-09-21T13:32:54.735Z,0.23
2022-09-21T13:36:12.460Z,0.30
2022-09-21T13:39:21.359Z,0.10
2022-09-21T13:42:48.818Z,0.20
2022-09-21T13:45:59.468Z,0.20
2022-09-21T13:49:26.435Z,0.30
2022-09-21T13:52:48.154Z,0.40
2022-09-21T13:56:02.679Z,0.30
2022-09-21T13:59:26.105Z,0.20
2022-09-21T14:02:38.167Z,0.40
2022-09-21T14:05:51.836Z,0.30
2022-09-21T14:09:06.102Z,0.30
2022-09-21T14:12:24.083Z,0.20
2022-09-21T14:15:39.734Z,0.47
2022-09-21T14:18:47.940Z,0.23
2022-09-21T14:22:43.581Z,0.20
2022-09-21T14:25:54.467Z,0.40
2022-09-21T14:29:16.887Z,0.80
2022-09-21T14:32:29.357Z,0.20
2022-09-21T14:35:42.276Z,0.70
2022-09-21T14:39:00.380Z,0.40
2022-09-21T14:42:15.721Z,0.30
2022-09-21T14:45:33.704Z,0.30
2022-09-21T14:49:00.127Z,0.30
2022-09-21T14:52:32.064Z,0.30
2022-09-21T14:56:10.074Z,0.20
2022-09-21T14:59:42.256Z,0.23
2022-09-21T15:03:10.813Z,0.40
2022-09-21T15:06:48.327Z,0.20
2022-09-21T15:10:38.367Z,3.27
2022-09-21T15:14:11.160Z,0.20
2022-09-21T15:17:29.825Z,0.20
2022-09-21T15:20:38.650Z,0.30
2022-09-21T15:23:47.001Z,0.40
2022-09-21T15:27:05.349Z,0.70
2022-09-21T15:30:24.746Z,0.20
2022-09-21T15:33:37.446Z,0.20
2022-09-21T15:36:51.753Z,0.10
2022-09-21T15:40:07.571Z,0.30
2022-09-21T15:43:21.104Z,0.43
2022-09-21T15:46:31.059Z,0.20
2022-09-21T15:49:43.803Z,0.20
2022-09-21T15:52:57.214Z,0.30
2022-09-21T15:56:06.547Z,1.17
2022-09-21T15:59:20.766Z,0.93
2022-09-21T16:02:40.284Z,0.60
2022-09-21T16:05:52.203Z,0.50
2022-09-21T16:09:00.412Z,0.30
2022-09-21T16:12:43.581Z,0.60
2022-09-21T16:16:02.049Z,0.40
2022-09-21T16:19:11.630Z,0.40
2022-09-21T16:22:25.567Z,0.40
2022-09-21T16:25:37.649Z,0.70
2022-09-21T16:28:46.052Z,0.23
2022-09-21T16:32:28.473Z,0.30
2022-09-21T16:35:41.541Z,0.50
2022-09-21T16:38:50.503Z,0.40
2022-09-21T16:42:04.009Z,0.30
2022-09-21T16:45:28.451Z,0.40
2022-09-21T16:48:36.939Z,0.30
2022-09-21T16:51:48.937Z,0.50
2022-09-21T16:54:58.992Z,0.50
2022-09-21T16:58:07.210Z,0.30
2022-09-21T17:01:20.910Z,0.40
2022-09-21T17:04:32.033Z,0.30
2022-09-21T17:07:41.888Z,0.30
2022-09-21T17:10:50.052Z,0.40
2022-09-21T17:14:01.327Z,0.47
2022-09-21T17:17:18.207Z,0.53
2022-09-21T17:20:34.528Z,0.63
2022-09-21T17:23:45.402Z,0.40
2022-09-21T17:26:53.973Z,0.50
2022-09-21T17:30:03.485Z,0.70
2022-09-21T17:33:12.169Z,0.60
2022-09-21T17:36:20.364Z,0.60
2022-09-21T17:39:30.023Z,0.53
2022-09-21T17:42:43.075Z,0.53
2022-09-21T17:46:03.585Z,0.90
2022-09-21T17:49:13.020Z,0.80
2022-09-21T17:52:41.142Z,0.60
2022-09-21T17:55:57.664Z,0.80
2022-09-21T17:59:08.059Z,0.60
2022-09-21T18:02:24.116Z,0.70
2022-09-21T18:05:32.704Z,0.90
2022-09-21T18:08:41.972Z,1.30
2022-09-21T18:12:44.165Z,1.80
2022-09-21T18:16:16.804Z,1.17
2022-09-21T18:19:45.617Z,0.93
2022-09-21T18:23:10.728Z,1.07
2022-09-21T18:26:20.751Z,1.13
2022-09-21T18:29:41.757Z,1.50
2022-09-21T18:33:13.476Z,1.40
2022-09-21T18:36:31.501Z,2.00
2022-09-21T18:39:54.019Z,1.50
2022-09-21T18:43:22.909Z,1.57
2022-09-21T18:46:50.414Z,1.30
2022-09-21T18:50:08.698Z,0.93
2022-09-21T18:53:26.108Z,1.20
2022-09-21T18:56:37.531Z,2.00
2022-09-21T18:59:46.959Z,1.47
2022-09-21T19:03:15.714Z,1.80
2022-09-21T19:06:40.342Z,1.47
2022-09-21T19:10:05.265Z,1.60
2022-09-21T19:13:43.042Z,1.70
2022-09-21T19:17:10.456Z,1.60
2022-09-21T19:20:50.790Z,1.47
2022-09-21T19:24:11.853Z,1.47
2022-09-21T19:27:29.124Z,2.20
2022-09-21T19:30:39.797Z,3.17
2022-09-21T19:33:51.032Z,3.73
2022-09-21T19:37:07.025Z,3.43
2022-09-21T19:40:22.288Z,2.47
2022-09-21T19:43:42.885Z,2.40
2022-09-21T19:47:07.415Z,2.80
2022-09-21T19:50:23.269Z,2.47
2022-09-21T19:53:51.553Z,3.40
2022-09-21T19:57:18.358Z,3.40
2022-09-21T20:00:27.525Z,4.63
2022-09-21T20:03:44.628Z,4.73
2022-09-21T20:07:03.225Z,4.07
2022-09-21T20:10:38.478Z,3.60
2022-09-21T20:14:09.106Z,3.67
2022-09-21T20:17:26.297Z,4.17
2022-09-21T20:20:35.014Z,4.83
2022-09-21T20:23:46.791Z,3.60
2022-09-21T20:27:00.777Z,3.40
2022-09-21T20:30:13.217Z,3.00
2022-09-21T20:33:24.150Z,2.80
2022-09-21T20:36:33.223Z,3.07
2022-09-21T20:39:42.278Z,2.97
2022-09-21T20:42:52.406Z,2.20
2022-09-21T20:46:00.654Z,1.93
2022-09-21T20:49:09.186Z,2.03
2022-09-21T20:52:18.372Z,1.87
2022-09-21T20:55:29.339Z,1.83
2022-09-21T20:58:38.781Z,2.50
2022-09-21T21:01:49.882Z,5.50
2022-09-21T21:04:58.026Z,8.93
2022-09-21T21:08:07.661Z,6.70
2022-09-21T21:11:16.144Z,7.67
2022-09-21T21:14:26.389Z,3.03
2022-09-21T21:17:35.879Z,1.90
2022-09-21T21:20:44.440Z,1.70
2022-09-21T21:24:10.694Z,2.33
2022-09-21T21:27:21.647Z,2.10
2022-09-21T21:30:32.086Z,2.47
2022-09-21T21:33:40.274Z,3.33
2022-09-21T21:36:49.055Z,4.10
2022-09-21T21:39:58.742Z,4.47
2022-09-21T21:43:07.067Z,5.03
2022-09-21T21:46:16.595Z,4.50
2022-09-21T21:49:25.847Z,4.13
2022-09-21T21:52:34.114Z,4.03
2022-09-21T21:55:42.491Z,3.50
2022-09-21T21:58:54.326Z,3.70
2022-09-21T22:02:04.353Z,3.30
2022-09-21T22:05:12.767Z,2.87
2022-09-21T22:08:21.094Z,1.87
2022-09-21T22:11:30.981Z,1.83
2022-09-21T22:14:39.608Z,2.07
2022-09-21T22:17:50.794Z,2.27
2022-09-21T22:21:04.098Z,2.70
2022-09-21T22:24:12.968Z,3.03
2022-09-21T22:27:21.925Z,3.20
2022-09-21T22:30:30.991Z,2.60
2022-09-21T22:33:41.422Z,2.43
2022-09-21T22:36:50.673Z,2.03
2022-09-21T22:39:59.361Z,1.80
2022-09-21T22:43:07.768Z,1.90
2022-09-21T22:46:17.625Z,2.13
2022-09-21T22:49:27.124Z,2.10
2022-09-21T22:52:35.919Z,2.20
2022-09-21T22:55:44.356Z,1.90
2022-09-21T22:58:57.684Z,1.50
2022-09-21T23:02:08.512Z,2.17
2022-09-21T23:05:18.440Z,2.63
2022-09-21T23:08:27.896Z,2.20
2022-09-21T23:11:39.958Z,1.70
2022-09-21T23:14:48.618Z,1.77
2022-09-21T23:17:57.263Z,1.67
2022-09-21T23:21:11.656Z,1.50
2022-09-21T23:24:21.208Z,1.30
2022-09-21T23:27:30.062Z,1.33
2022-09-21T23:30:38.863Z,1.60
2022-09-21T23:33:49.901Z,1.03
2022-09-21T23:36:59.701Z,1.33
2022-09-21T23:40:11.010Z,1.60
2022-09-21T23:43:19.574Z,2.27
2022-09-21T23:46:32.843Z,3.20
2022-09-21T23:49:41.541Z,2.20
2022-09-21T23:52:51.850Z,2.77
2022-09-21T23:56:01.620Z,2.10
2022-09-21T23:59:12.454Z,1.43
